createdAt,value
2023-08-21T00:02:16.810Z,22.67
2023-08-21T00:04:44.009Z,22.67
2023-08-21T00:07:12.654Z,22.62
2023-08-21T00:09:39.894Z,22.61
2023-08-21T00:12:07.566Z,22.60
2023-08-21T00:14:34.842Z,22.55
2023-08-21T00:17:04.384Z,22.51
2023-08-21T00:19:32.141Z,22.59
2023-08-21T00:21:59.278Z,22.57
2023-08-21T00:24:26.530Z,22.62
2023-08-21T00:26:53.566Z,22.59
2023-08-21T00:29:20.820Z,22.54
2023-08-21T00:31:48.116Z,22.47
2023-08-21T00:34:15.759Z,22.48
2023-08-21T00:36:42.967Z,22.46
2023-08-21T00:39:10.048Z,22.46
2023-08-21T00:41:37.243Z,22.45
2023-08-21T00:44:05.307Z,22.43
2023-08-21T00:46:33.581Z,22.41
2023-08-21T00:49:01.190Z,22.41
2023-08-21T00:51:28.572Z,22.24
2023-08-21T00:53:55.897Z,22.36
2023-08-21T00:56:23.109Z,22.26
2023-08-21T00:58:50.595Z,22.15
2023-08-21T01:01:20.386Z,22.12
2023-08-21T01:03:47.916Z,22.15
2023-08-21T01:06:14.976Z,22.21
2023-08-21T01:09:13.126Z,22.19
2023-08-21T01:12:06.074Z,22.26
2023-08-21T01:14:44.830Z,22.23
2023-08-21T01:17:17.109Z,22.12
2023-08-21T01:19:47.399Z,22.29
2023-08-21T01:22:14.779Z,22.29
2023-08-21T01:24:41.938Z,22.30
2023-08-21T01:27:10.463Z,22.26
2023-08-21T01:29:38.449Z,22.22
2023-08-21T01:32:11.253Z,22.29
2023-08-21T01:34:40.455Z,22.32
2023-08-21T01:37:09.475Z,22.31
2023-08-21T01:39:36.752Z,22.30
2023-08-21T01:42:05.977Z,22.29
2023-08-21T01:44:33.370Z,22.23
2023-08-21T01:47:03.096Z,22.27
2023-08-21T01:49:30.291Z,22.23
2023-08-21T01:51:57.497Z,22.12
2023-08-21T01:54:26.241Z,22.09
2023-08-21T01:56:53.313Z,22.05
2023-08-21T01:59:21.457Z,21.85
2023-08-21T02:01:48.694Z,21.98
2023-08-21T02:04:15.857Z,21.99
2023-08-21T02:06:43.125Z,21.94
2023-08-21T02:09:10.237Z,21.92
2023-08-21T02:11:37.436Z,21.80
2023-08-21T02:16:31.907Z,21.88
2023-08-21T02:18:59.254Z,21.86
2023-08-21T02:21:26.498Z,21.78
2023-08-21T02:23:53.708Z,21.78
2023-08-21T02:26:21.452Z,21.69
2023-08-21T02:28:48.585Z,21.66
2023-08-21T02:31:15.701Z,21.68
2023-08-21T02:33:42.886Z,21.65
2023-08-21T02:36:10.005Z,21.65
2023-08-21T02:38:37.304Z,21.63
2023-08-21T02:41:04.977Z,21.50
2023-08-21T02:43:32.088Z,21.59
2023-08-21T02:45:59.316Z,21.58
2023-08-21T02:48:26.588Z,21.54
2023-08-21T02:50:54.887Z,21.49
2023-08-21T02:53:22.055Z,21.55
2023-08-21T02:55:49.291Z,21.55
2023-08-21T02:58:16.520Z,21.46
2023-08-21T03:00:44.228Z,21.51
2023-08-21T03:03:12.570Z,21.48
2023-08-21T03:05:39.790Z,21.32
2023-08-21T03:08:07.731Z,21.39
2023-08-21T03:10:35.712Z,21.33
2023-08-21T03:13:02.893Z,21.27
2023-08-21T03:15:30.415Z,21.15
2023-08-21T03:17:57.566Z,21.19
2023-08-21T03:20:25.041Z,21.19
2023-08-21T03:22:52.171Z,21.15
2023-08-21T03:25:19.475Z,21.10
2023-08-21T03:27:50.603Z,21.03
2023-08-21T03:30:18.328Z,20.93
2023-08-21T03:32:45.827Z,20.95
2023-08-21T03:35:13.132Z,20.92
2023-08-21T03:37:43.261Z,20.88
2023-08-21T03:40:13.769Z,20.77
2023-08-21T03:42:41.870Z,20.85
2023-08-21T03:45:09.508Z,20.78
2023-08-21T03:47:36.785Z,20.77
2023-08-21T03:50:11.406Z,20.74
2023-08-21T03:52:38.714Z,20.65
2023-08-21T03:55:06.171Z,20.70
2023-08-21T03:57:33.286Z,20.71
2023-08-21T04:00:00.375Z,20.75
2023-08-21T04:02:27.881Z,20.70
2023-08-21T04:04:55.041Z,20.66
2023-08-21T04:07:22.235Z,20.66
2023-08-21T04:09:49.398Z,20.64
2023-08-21T04:12:16.529Z,20.68
2023-08-21T04:14:43.769Z,20.67
2023-08-21T04:17:10.841Z,20.63
2023-08-21T04:19:38.637Z,20.60
2023-08-21T04:22:05.847Z,20.57
2023-08-21T04:24:33.046Z,20.61
2023-08-21T04:27:00.128Z,20.64
2023-08-21T04:29:27.257Z,20.55
2023-08-21T04:31:55.133Z,20.69
2023-08-21T04:34:22.208Z,20.72
2023-08-21T04:36:50.550Z,20.71
2023-08-21T04:39:18.258Z,20.72
2023-08-21T04:41:46.648Z,20.73
2023-08-21T04:44:13.820Z,20.73
2023-08-21T04:46:40.927Z,20.65
2023-08-21T04:49:08.243Z,20.65
2023-08-21T04:51:35.817Z,20.66
2023-08-21T04:54:04.202Z,20.68
2023-08-21T04:56:32.079Z,20.64
2023-08-21T04:58:59.682Z,20.68
2023-08-21T05:01:29.085Z,20.70
2023-08-21T05:03:58.180Z,20.75
2023-08-21T05:06:25.602Z,20.78
2023-08-21T05:08:52.657Z,20.87
2023-08-21T05:11:20.400Z,20.91
2023-08-21T05:13:47.478Z,20.93
2023-08-21T05:16:16.473Z,20.98
2023-08-21T05:18:43.820Z,20.96
2023-08-21T05:21:10.948Z,21.03
2023-08-21T05:23:38.110Z,21.08
2023-08-21T05:26:08.251Z,21.06
2023-08-21T05:28:35.356Z,21.09
2023-08-21T05:31:02.528Z,21.09
2023-08-21T05:33:40.445Z,21.12
2023-08-21T05:36:07.625Z,21.14
2023-08-21T05:38:34.941Z,21.16
2023-08-21T05:41:02.373Z,21.15
2023-08-21T05:43:29.938Z,21.21
2023-08-21T05:45:58.343Z,21.06
2023-08-21T05:48:25.503Z,21.29
2023-08-21T05:50:53.496Z,21.22
2023-08-21T05:53:21.127Z,21.30
2023-08-21T05:55:48.422Z,21.34
2023-08-21T05:58:16.558Z,21.44
2023-08-21T06:00:45.733Z,21.52
2023-08-21T06:03:13.097Z,21.59
2023-08-21T06:06:12.640Z,21.61
2023-08-21T06:08:40.727Z,21.72
2023-08-21T06:11:07.915Z,21.81
2023-08-21T06:13:35.052Z,21.80
2023-08-21T06:16:02.875Z,21.89
2023-08-21T06:18:31.613Z,22.01
2023-08-21T06:20:58.902Z,22.14
2023-08-21T06:23:26.080Z,22.26
2023-08-21T06:25:53.228Z,22.33
2023-08-21T06:28:22.620Z,22.42
2023-08-21T06:30:57.603Z,22.59
2023-08-21T06:33:24.957Z,22.68
2023-08-21T06:35:52.214Z,22.66
2023-08-21T06:38:19.405Z,22.74
2023-08-21T06:40:47.675Z,22.86
2023-08-21T06:43:14.942Z,23.00
2023-08-21T06:45:47.368Z,23.03
2023-08-21T06:48:15.530Z,23.20
2023-08-21T06:50:42.852Z,23.28
2023-08-21T06:53:09.940Z,23.38
2023-08-21T06:55:37.527Z,23.51
2023-08-21T06:58:05.012Z,23.62
2023-08-21T07:00:32.282Z,23.71
2023-08-21T07:02:59.728Z,23.82
2023-08-21T07:05:26.998Z,23.94
2023-08-21T07:07:55.723Z,24.07
2023-08-21T07:10:23.109Z,24.10
2023-08-21T07:12:50.347Z,24.19
2023-08-21T07:15:17.612Z,24.34
2023-08-21T07:17:44.787Z,24.49
2023-08-21T07:20:12.465Z,24.65
2023-08-21T07:22:40.048Z,24.82
2023-08-21T07:25:07.819Z,24.97
2023-08-21T07:27:35.081Z,25.09
2023-08-21T07:30:02.263Z,25.18
2023-08-21T07:32:29.511Z,25.26
2023-08-21T07:34:56.779Z,25.30
2023-08-21T07:37:23.961Z,25.51
2023-08-21T07:39:51.119Z,25.74
2023-08-21T07:42:18.499Z,25.79
2023-08-21T07:44:47.300Z,25.74
2023-08-21T07:47:14.501Z,25.98
2023-08-21T07:49:41.730Z,26.04
2023-08-21T07:52:08.922Z,26.19
2023-08-21T07:54:36.138Z,26.40
2023-08-21T07:57:05.238Z,26.52
2023-08-21T07:59:32.384Z,26.61
2023-08-21T08:02:01.948Z,26.66
2023-08-21T08:04:29.617Z,26.72
2023-08-21T08:06:57.031Z,26.83
2023-08-21T08:09:24.240Z,26.95
2023-08-21T08:11:51.339Z,26.96
2023-08-21T08:14:18.458Z,26.96
2023-08-21T08:16:45.766Z,27.11
2023-08-21T08:19:12.860Z,27.26
2023-08-21T08:21:40.182Z,27.31
2023-08-21T08:24:07.540Z,27.49
2023-08-21T08:26:34.750Z,27.44
2023-08-21T08:29:01.977Z,27.42
2023-08-21T08:31:29.430Z,27.36
2023-08-21T08:33:56.631Z,27.46
2023-08-21T08:36:23.879Z,27.64
2023-08-21T08:38:51.214Z,27.69
2023-08-21T08:41:34.610Z,27.71
2023-08-21T08:44:03.968Z,27.78
2023-08-21T08:46:32.022Z,27.91
2023-08-21T08:49:01.445Z,28.00
2023-08-21T08:51:31.973Z,28.00
2023-08-21T08:54:00.393Z,28.12
2023-08-21T08:56:27.834Z,28.14
2023-08-21T08:58:55.183Z,28.16
2023-08-21T09:01:22.501Z,28.14
2023-08-21T09:03:51.597Z,28.34
2023-08-21T09:06:18.762Z,28.42
2023-08-21T09:08:56.426Z,28.54
2023-08-21T09:11:24.389Z,28.63
2023-08-21T09:13:52.570Z,28.61
2023-08-21T09:16:20.681Z,28.71
2023-08-21T09:18:49.397Z,28.82
2023-08-21T09:21:24.518Z,28.82
2023-08-21T09:23:58.569Z,28.76
2023-08-21T09:26:26.159Z,28.84
2023-08-21T09:28:54.354Z,28.97
2023-08-21T09:31:25.663Z,29.12
2023-08-21T09:34:01.984Z,29.21
2023-08-21T09:36:29.899Z,29.32
2023-08-21T09:38:57.023Z,29.38
2023-08-21T09:41:25.559Z,29.44
2023-08-21T09:43:53.062Z,29.50
2023-08-21T09:46:27.687Z,29.55
2023-08-21T09:48:55.414Z,29.56
2023-08-21T09:51:22.637Z,29.66
2023-08-21T09:53:51.252Z,29.78
2023-08-21T09:56:21.544Z,29.81
2023-08-21T09:58:52.568Z,29.90
2023-08-21T10:01:23.185Z,29.94
2023-08-21T10:03:50.604Z,29.99
2023-08-21T10:06:23.013Z,29.88
2023-08-21T10:08:54.792Z,29.94
2023-08-21T10:11:22.855Z,30.04
2023-08-21T10:13:54.208Z,30.13
2023-08-21T10:16:24.321Z,30.01
2023-08-21T10:18:51.465Z,30.10
2023-08-21T10:21:22.006Z,30.09
2023-08-21T10:23:52.804Z,30.16
2023-08-21T10:26:22.253Z,30.24
2023-08-21T10:29:04.331Z,30.25
2023-08-21T10:31:33.043Z,30.35
2023-08-21T10:34:02.387Z,30.43
2023-08-21T10:37:01.464Z,30.60
2023-08-21T10:39:33.651Z,30.69
2023-08-21T10:42:11.126Z,30.77
2023-08-21T10:45:07.056Z,30.66
2023-08-21T10:47:36.897Z,30.74
2023-08-21T10:50:08.640Z,30.64
2023-08-21T10:52:43.433Z,30.51
2023-08-21T10:55:11.285Z,30.16
2023-08-21T10:57:39.406Z,29.88
2023-08-21T11:00:12.816Z,29.87
2023-08-21T11:02:43.792Z,29.93
2023-08-21T11:05:12.209Z,30.09
2023-08-21T11:07:40.862Z,30.21
2023-08-21T11:10:12.886Z,30.28
2023-08-21T11:12:50.229Z,30.32
2023-08-21T11:15:20.108Z,30.33
2023-08-21T11:18:14.633Z,30.37
2023-08-21T11:20:44.344Z,30.39
2023-08-21T11:23:11.626Z,30.38
2023-08-21T11:25:42.209Z,30.38
2023-08-21T11:28:09.898Z,30.29
2023-08-21T11:30:37.665Z,30.46
2023-08-21T11:33:12.861Z,30.45
2023-08-21T11:35:40.715Z,30.16
2023-08-21T11:38:15.128Z,30.16
2023-08-21T11:40:42.251Z,30.10
2023-08-21T11:43:10.679Z,30.04
2023-08-21T11:45:53.102Z,30.13
2023-08-21T11:48:24.493Z,30.21
2023-08-21T11:50:51.841Z,30.22
2023-08-21T11:53:36.038Z,30.20
2023-08-21T11:56:03.867Z,30.25
2023-08-21T11:58:31.401Z,30.29
2023-08-21T12:01:05.685Z,30.33
2023-08-21T12:03:38.468Z,30.17
2023-08-21T12:06:10.383Z,30.01
2023-08-21T12:08:38.025Z,29.92
2023-08-21T12:11:05.118Z,29.97
2023-08-21T12:13:35.483Z,30.09
2023-08-21T12:16:03.407Z,30.15
2023-08-21T12:18:30.648Z,30.14
2023-08-21T12:20:58.791Z,29.91
2023-08-21T12:23:26.319Z,29.70
2023-08-21T12:25:53.443Z,29.50
2023-08-21T12:28:20.683Z,29.35
2023-08-21T12:30:48.503Z,29.36
2023-08-21T12:33:23.157Z,29.36
2023-08-21T12:35:52.197Z,29.34
2023-08-21T12:38:19.648Z,29.39
2023-08-21T12:40:46.752Z,29.30
2023-08-21T12:43:13.966Z,29.20
2023-08-21T12:45:41.740Z,29.23
2023-08-21T12:48:09.789Z,29.16
2023-08-21T12:50:37.186Z,29.03
2023-08-21T12:53:04.573Z,29.00
2023-08-21T12:55:32.272Z,29.00
2023-08-21T12:57:59.579Z,29.10
2023-08-21T13:00:26.824Z,29.09
2023-08-21T13:02:54.401Z,28.99
2023-08-21T13:05:21.744Z,28.83
2023-08-21T13:07:50.246Z,28.79
2023-08-21T13:10:17.421Z,28.82
2023-08-21T13:12:45.089Z,28.74
2023-08-21T13:15:12.335Z,28.70
2023-08-21T13:17:39.763Z,28.63
2023-08-21T13:20:07.666Z,28.51
2023-08-21T13:22:52.864Z,28.39
2023-08-21T13:25:23.946Z,28.34
2023-08-21T13:27:52.241Z,28.27
2023-08-21T13:30:19.708Z,28.20
2023-08-21T13:32:46.930Z,28.16
2023-08-21T13:35:14.250Z,28.04
2023-08-21T13:37:41.723Z,28.01
2023-08-21T13:40:13.869Z,27.90
2023-08-21T13:42:45.581Z,27.79
2023-08-21T13:45:14.412Z,27.55
2023-08-21T13:47:43.628Z,27.57
2023-08-21T13:50:11.973Z,27.46
2023-08-21T13:52:41.212Z,27.37
2023-08-21T13:55:10.178Z,27.30
2023-08-21T13:57:40.574Z,27.21
2023-08-21T14:00:12.976Z,27.15
2023-08-21T14:02:43.837Z,27.08
2023-08-21T14:05:12.389Z,27.02
2023-08-21T14:07:41.436Z,26.97
2023-08-21T14:10:10.055Z,26.93
2023-08-21T14:12:39.119Z,26.95
2023-08-21T14:15:09.427Z,26.99
2023-08-21T14:17:36.970Z,27.02
2023-08-21T14:20:05.614Z,27.03
2023-08-21T14:22:33.216Z,27.00
2023-08-21T14:25:00.467Z,27.04
2023-08-21T14:27:27.710Z,27.12
2023-08-21T14:29:54.867Z,27.10
2023-08-21T14:32:22.213Z,27.15
2023-08-21T14:34:49.383Z,27.15
2023-08-21T14:37:17.217Z,27.17
2023-08-21T14:39:44.749Z,27.08
2023-08-21T14:42:12.494Z,27.08
2023-08-21T14:44:39.698Z,27.10
2023-08-21T14:47:08.921Z,27.08
2023-08-21T14:49:36.283Z,27.13
2023-08-21T14:52:04.462Z,27.12
2023-08-21T14:54:31.743Z,27.07
2023-08-21T14:56:58.982Z,27.13
2023-08-21T14:59:26.495Z,27.13
2023-08-21T15:01:53.813Z,27.17
2023-08-21T15:04:20.981Z,27.19
2023-08-21T15:06:48.256Z,27.20
2023-08-21T15:09:15.501Z,27.20
2023-08-21T15:11:42.670Z,27.10
2023-08-21T15:14:13.304Z,27.28
2023-08-21T15:16:40.791Z,27.26
2023-08-21T15:19:08.216Z,27.22
2023-08-21T15:21:35.508Z,27.17
2023-08-21T15:24:05.314Z,27.09
2023-08-21T15:26:32.786Z,27.04
2023-08-21T15:29:01.680Z,27.05
2023-08-21T15:31:28.936Z,27.06
2023-08-21T15:33:56.283Z,27.06
2023-08-21T15:36:23.534Z,27.13
2023-08-21T15:38:50.916Z,27.14
2023-08-21T15:41:18.090Z,27.11
2023-08-21T15:43:45.272Z,26.94
2023-08-21T15:46:12.671Z,27.00
2023-08-21T15:48:40.154Z,27.02
2023-08-21T15:51:07.440Z,27.03
2023-08-21T15:53:34.817Z,27.00
2023-08-21T15:56:02.013Z,26.96
2023-08-21T15:58:29.576Z,26.97
2023-08-21T16:00:58.963Z,26.94
2023-08-21T16:03:26.285Z,26.83
2023-08-21T16:05:53.571Z,26.83
2023-08-21T16:08:21.141Z,26.77
2023-08-21T16:10:48.278Z,26.74
2023-08-21T16:13:15.705Z,26.73
2023-08-21T16:15:42.952Z,26.76
2023-08-21T16:18:11.419Z,26.82
2023-08-21T16:20:39.089Z,26.83
2023-08-21T16:23:07.775Z,26.79
2023-08-21T16:25:35.477Z,26.78
2023-08-21T16:28:02.830Z,26.66
2023-08-21T16:30:30.405Z,26.60
2023-08-21T16:32:57.977Z,26.55
2023-08-21T16:35:26.605Z,26.45
2023-08-21T16:37:53.970Z,26.47
2023-08-21T16:40:21.359Z,26.50
2023-08-21T16:42:48.792Z,26.52
2023-08-21T16:45:17.373Z,26.51
2023-08-21T16:47:46.713Z,26.48
2023-08-21T16:50:15.086Z,26.49
2023-08-21T16:52:42.568Z,26.47
2023-08-21T16:55:10.339Z,26.42
2023-08-21T16:57:37.818Z,26.34
2023-08-21T17:00:11.254Z,26.31
2023-08-21T17:02:40.763Z,26.30
2023-08-21T17:05:09.268Z,26.20
2023-08-21T17:07:39.485Z,26.19
2023-08-21T17:10:12.001Z,26.12
2023-08-21T17:12:39.600Z,26.08
2023-08-21T17:15:08.535Z,26.03
2023-08-21T17:17:35.752Z,26.11
2023-08-21T17:20:06.587Z,26.11
2023-08-21T17:22:33.832Z,26.08
2023-08-21T17:25:12.736Z,26.08
2023-08-21T17:27:41.987Z,26.03
2023-08-21T17:30:10.024Z,25.96
2023-08-21T17:32:37.819Z,25.95
2023-08-21T17:35:05.947Z,25.89
2023-08-21T17:37:33.183Z,25.84
2023-08-21T17:40:01.180Z,25.79
2023-08-21T17:42:28.399Z,25.61
2023-08-21T17:44:56.296Z,25.69
2023-08-21T17:47:23.723Z,25.59
2023-08-21T17:49:51.704Z,25.55
2023-08-21T17:52:18.892Z,25.50
2023-08-21T17:54:46.298Z,25.42
2023-08-21T17:57:14.403Z,25.36
2023-08-21T17:59:41.603Z,25.28
2023-08-21T18:02:11.353Z,25.24
2023-08-21T18:04:43.022Z,25.14
2023-08-21T18:07:10.278Z,25.04
2023-08-21T18:09:38.017Z,24.96
2023-08-21T18:12:05.834Z,24.89
2023-08-21T18:14:33.104Z,24.83
2023-08-21T18:17:04.780Z,24.76
2023-08-21T18:19:44.801Z,24.70
2023-08-21T18:22:14.244Z,24.59
2023-08-21T18:24:41.486Z,24.61
2023-08-21T18:27:08.679Z,24.52
2023-08-21T18:29:39.706Z,24.53
2023-08-21T18:32:11.073Z,24.50
2023-08-21T18:34:39.463Z,24.44
2023-08-21T18:37:09.102Z,24.44
2023-08-21T18:39:36.456Z,24.40
2023-08-21T18:42:03.892Z,24.36
2023-08-21T18:44:31.269Z,24.32
2023-08-21T18:46:59.768Z,24.25
2023-08-21T18:49:27.267Z,24.21
2023-08-21T18:51:55.176Z,24.21
2023-08-21T18:54:25.246Z,24.18
2023-08-21T18:56:53.723Z,24.15
2023-08-21T18:59:21.025Z,24.14
2023-08-21T19:01:48.292Z,24.06
2023-08-21T19:04:15.494Z,24.07
2023-08-21T19:06:51.937Z,24.05
2023-08-21T19:09:27.663Z,23.99
2023-08-21T19:11:54.826Z,23.96
2023-08-21T19:14:22.017Z,23.87
2023-08-21T19:16:53.657Z,23.83
2023-08-21T19:19:23.439Z,23.78
2023-08-21T19:21:52.203Z,23.72
2023-08-21T19:24:23.770Z,23.69
2023-08-21T19:26:53.873Z,23.60
2023-08-21T19:29:25.803Z,23.54
2023-08-21T19:31:56.048Z,23.49
2023-08-21T19:34:24.758Z,23.35
2023-08-21T19:36:56.162Z,23.35
2023-08-21T19:39:24.108Z,23.27
2023-08-21T19:44:37.521Z,23.23
2023-08-21T19:47:06.563Z,23.20
2023-08-21T19:52:25.517Z,23.20
2023-08-21T19:54:57.204Z,23.10
2023-08-21T19:57:31.639Z,23.11
2023-08-21T20:00:00.321Z,23.05
2023-08-21T20:02:30.724Z,23.06
2023-08-21T20:05:02.098Z,23.00
2023-08-21T20:07:30.920Z,22.92
2023-08-21T20:10:01.799Z,22.96
2023-08-21T20:12:34.409Z,22.95
2023-08-21T20:15:06.122Z,22.92
2023-08-21T20:17:34.357Z,22.91
2023-08-21T20:20:03.076Z,22.89
2023-08-21T20:22:33.233Z,22.79
2023-08-21T20:25:01.836Z,22.79
2023-08-21T20:27:29.339Z,22.77
2023-08-21T20:29:56.518Z,22.71
2023-08-21T20:32:24.058Z,22.75
2023-08-21T20:34:51.332Z,22.70
2023-08-21T20:37:18.537Z,22.61
2023-08-21T20:39:45.856Z,22.51
2023-08-21T20:42:13.120Z,22.45
2023-08-21T20:44:40.892Z,22.41
2023-08-21T20:47:08.173Z,22.39
2023-08-21T20:49:36.484Z,22.40
2023-08-21T20:52:04.768Z,22.30
2023-08-21T20:54:32.977Z,22.41
2023-08-21T20:57:00.124Z,22.39
2023-08-21T20:59:27.308Z,22.35
2023-08-21T21:01:54.540Z,22.30
2023-08-21T21:04:21.663Z,22.30
2023-08-21T21:06:49.942Z,22.26
2023-08-21T21:09:16.975Z,22.24
2023-08-21T21:11:44.309Z,22.20
2023-08-21T21:14:11.503Z,22.10
2023-08-21T21:16:41.334Z,22.04
2023-08-21T21:19:08.650Z,22.01
2023-08-21T21:21:36.096Z,21.99
2023-08-21T21:24:03.385Z,21.92
2023-08-21T21:26:30.639Z,21.86
2023-08-21T21:28:57.801Z,21.81
2023-08-21T21:31:25.049Z,21.77
2023-08-21T21:33:53.943Z,21.72
2023-08-21T21:36:21.223Z,21.67
2023-08-21T21:38:48.391Z,21.66
2023-08-21T21:41:15.602Z,21.46
2023-08-21T21:43:43.541Z,21.47
2023-08-21T21:46:15.825Z,21.32
2023-08-21T21:48:43.185Z,21.16
2023-08-21T21:51:10.876Z,21.06
2023-08-21T21:53:38.142Z,20.98
2023-08-21T21:56:05.653Z,20.95
2023-08-21T21:58:32.888Z,20.86
2023-08-21T22:01:00.351Z,20.88
2023-08-21T22:03:28.394Z,20.79
2023-08-21T22:05:56.534Z,20.69
2023-08-21T22:08:24.735Z,20.62
2023-08-21T22:10:53.356Z,20.60
2023-08-21T22:13:21.491Z,20.52
2023-08-21T22:15:48.634Z,20.47
2023-08-21T22:18:16.724Z,20.41
2023-08-21T22:20:45.387Z,20.36
2023-08-21T22:23:12.537Z,20.40
2023-08-21T22:25:40.141Z,20.46
2023-08-21T22:28:07.347Z,20.47
2023-08-21T22:30:34.432Z,20.41
2023-08-21T22:33:01.654Z,20.40
2023-08-21T22:35:28.891Z,20.42
2023-08-21T22:37:56.007Z,20.52
2023-08-21T22:40:26.706Z,20.51
2023-08-21T22:42:54.008Z,20.63
2023-08-21T22:45:21.668Z,20.56
2023-08-21T22:47:49.055Z,20.40
2023-08-21T22:50:16.449Z,20.28
2023-08-21T22:52:43.688Z,20.17
2023-08-21T22:55:11.371Z,20.09
2023-08-21T22:57:41.131Z,20.06
2023-08-21T23:00:11.246Z,20.07
2023-08-21T23:02:38.767Z,20.01
2023-08-21T23:05:07.019Z,20.03
2023-08-21T23:07:35.254Z,20.00
2023-08-21T23:10:03.164Z,19.91
2023-08-21T23:12:30.561Z,19.81
2023-08-21T23:14:58.231Z,19.76
2023-08-21T23:17:25.760Z,19.78
2023-08-21T23:19:53.421Z,19.71
2023-08-21T23:22:21.007Z,19.62
2023-08-21T23:24:48.472Z,19.60
2023-08-21T23:27:15.830Z,19.47
2023-08-21T23:29:43.052Z,19.52
2023-08-21T23:32:10.597Z,19.45
2023-08-21T23:34:37.918Z,19.38
2023-08-21T23:37:05.631Z,19.34
2023-08-21T23:39:32.978Z,19.31
2023-08-21T23:42:00.458Z,19.19
2023-08-21T23:44:27.828Z,19.26
2023-08-21T23:46:55.105Z,19.30
2023-08-21T23:49:22.488Z,19.29
2023-08-21T23:51:49.793Z,19.34
2023-08-21T23:54:17.174Z,19.43
2023-08-21T23:56:44.617Z,19.43
2023-08-21T23:59:11.871Z,19.44
